Terminal Aerodrome Forecast
Issued by NWS

Home | Current Version | Previous Version | Text Only | Print | Product List | Glossary On
Versions: 1 2 3 4 5 6 7 8 9
000
FTUS42 KMHX 280500 RRA
TAFOAJ
TAF
KOAJ 280548Z 2806/2906 21003KT P6SM BKN150
     FM281200 23004KT P6SM BKN080
     FM281700 22006KT P6SM OVC040
     FM282100 21003KT P6SM OVC020
     FM290200 19003KT 3SM BR VCSH OVC009
      AMD LTD TO CLD VIS AND WIND=

USA.gov is the U.S. government's official web portal to all federal, state and local government web resources and services.